Time;durP1;ratioP1;P1;durP2;ratioP2;P2;SDS_P1;SDS_P2;PMS_P1;PMS_P2;Temp;Humidity;BMP_temperature;BMP_pressure;BME280_temperature;BME280_humidity;BME280_pressure;Samples;Min_cycle;Max_cycle;Signal;HPM_P1;HPM_P2
2022/04/29 00:00:43;;;;;;;19.27;11.15;;;;;;;8.51;54.97;100311.00;1786143;80;20904;-44
2022/04/29 00:03:13;;;;;;;18.80;11.15;;;;;;;8.48;55.12;100307.02;1785841;80;21575;-44
2022/04/29 00:05:42;;;;;;;22.32;12.07;;;;;;;8.46;55.47;100309.27;1785989;80;21047;-44
2022/04/29 00:08:11;;;;;;;21.05;11.33;;;;;;;8.44;55.16;100303.38;1786166;79;20984;-44
2022/04/29 00:10:41;;;;;;;19.85;10.90;;;;;;;8.42;54.91;100309.68;1785966;80;21032;-44
2022/04/29 00:13:12;;;;;;;20.15;10.75;;;;;;;8.40;54.63;100313.80;1786314;79;21074;-44
2022/04/29 00:15:41;;;;;;;20.48;10.58;;;;;;;8.37;54.75;100308.50;1785883;80;21034;-44
2022/04/29 00:18:08;;;;;;;17.48;9.50;;;;;;;8.30;54.82;100308.18;1786007;80;21031;-43
2022/04/29 00:20:35;;;;;;;22.73;10.68;;;;;;;8.24;54.90;100309.42;1786162;80;21186;-44
2022/04/29 00:23:04;;;;;;;18.35;10.25;;;;;;;8.19;54.86;100304.98;1785964;79;20979;-43
2022/04/29 00:25:32;;;;;;;20.77;10.75;;;;;;;8.16;55.09;100312.39;1785961;80;21031;-43
2022/04/29 00:27:59;;;;;;;15.88;9.93;;;;;;;8.09;55.10;100310.72;1785884;79;21453;-43
2022/04/29 00:30:26;;;;;;;20.62;9.60;;;;;;;8.04;55.07;100308.17;1786112;80;21035;-43
2022/04/29 00:32:53;;;;;;;17.80;9.75;;;;;;;8.01;54.93;100303.42;1786244;80;21906;-43
2022/04/29 00:35:22;;;;;;;20.60;9.85;;;;;;;7.99;54.94;100299.47;1786182;79;20987;-44
2022/04/29 00:37:53;;;;;;;15.28;9.40;;;;;;;7.98;55.17;100303.28;1785930;80;21076;-43
2022/04/29 00:40:24;;;;;;;;;;;;;;;7.96;55.34;100296.83;1788637;80;21032;-43
2022/04/29 00:42:52;;;;;;;17.05;9.23;;;;;;;7.95;55.52;100300.64;1785941;79;20133;-43
2022/04/29 00:45:20;;;;;;;20.52;10.18;;;;;;;7.82;55.90;100298.36;1785836;80;21232;-44
2022/04/29 00:47:48;;;;;;;17.75;9.93;;;;;;;7.82;56.02;100291.61;1785896;80;20984;-44
2022/04/29 00:50:21;;;;;;;22.95;9.80;;;;;;;7.80;56.11;100276.27;1786076;80;20992;-44
2022/04/29 00:52:50;;;;;;;15.83;9.85;;;;;;;7.79;56.47;100279.31;1786201;80;20972;-44
2022/04/29 00:55:19;;;;;;;19.37;9.85;;;;;;;7.73;56.68;100280.02;1785970;80;20980;-44
2022/04/29 00:58:01;;;;;;;17.05;9.55;;;;;;;7.68;56.82;100283.43;1785949;80;21091;-44
2022/04/29 01:00:31;;;;;;;19.25;9.75;;;;;;;7.65;56.94;100278.09;1785989;79;21596;-43
2022/04/29 01:03:00;;;;;;;20.77;9.53;;;;;;;7.60;56.97;100281.53;1786071;80;20905;-44
2022/04/29 01:05:28;;;;;;;;;;;;;;;7.57;57.52;100284.29;1788861;79;20980;-44
2022/04/29 01:07:57;;;;;;;18.65;9.50;;;;;;;7.57;58.13;100282.14;1786232;80;20127;-43
2022/04/29 01:10:24;;;;;;;18.40;9.55;;;;;;;7.46;58.43;100292.45;1786253;80;21128;-43
2022/04/29 01:12:59;;;;;;;20.63;9.77;;;;;;;7.47;57.80;100291.34;1786184;80;20900;-43
2022/04/29 01:15:28;;;;;;;20.35;9.38;;;;;;;7.41;57.51;100292.59;1786131;79;20967;-42
2022/04/29 01:17:59;;;;;;;21.68;8.90;;;;;;;7.36;57.56;100303.53;1786002;80;21051;-42
2022/04/29 01:20:28;;;;;;;16.67;8.10;;;;;;;7.29;57.59;100298.63;1786022;80;21043;-42
2022/04/29 01:22:57;;;;;;;16.35;8.40;;;;;;;7.23;57.69;100301.77;1786154;80;22059;-43
2022/04/29 01:25:25;;;;;;;20.17;9.38;;;;;;;7.15;57.94;100306.05;1785859;80;21538;-42
2022/04/29 01:27:53;;;;;;;14.13;8.08;;;;;;;7.02;58.24;100306.17;1785882;80;20964;-42
2022/04/29 01:30:22;;;;;;;13.30;7.45;;;;;;;6.85;58.51;100306.89;1786069;80;21044;-42
2022/04/29 01:32:50;;;;;;;13.50;7.47;;;;;;;6.71;58.94;100300.81;1785873;79;21003;-39
2022/04/29 01:35:18;;;;;;;15.88;7.47;;;;;;;6.62;59.28;100301.33;1781025;80;21141;-44
2022/04/29 01:37:44;;;;;;;11.35;6.97;;;;;;;6.57;59.66;100297.41;1785864;80;21087;-43
2022/04/29 01:40:12;;;;;;;12.78;6.60;;;;;;;6.54;59.74;100303.66;1785808;80;21525;-43
2022/04/29 01:42:41;;;;;;;11.95;6.70;;;;;;;6.57;59.68;100305.50;1786099;80;21518;-43
2022/04/29 01:45:10;;;;;;;12.58;6.37;;;;;;;6.58;59.53;100306.55;1781164;80;20941;-44
2022/04/29 01:47:40;;;;;;;14.33;6.80;;;;;;;6.60;59.35;100303.52;1751667;81;21237;-44
2022/04/29 01:50:11;;;;;;;12.10;6.10;;;;;;;6.59;59.21;100301.92;1773270;79;21531;-44
2022/04/29 01:52:39;;;;;;;10.00;6.17;;;;;;;6.55;59.11;100299.86;1773129;81;20894;-43
2022/04/29 01:55:07;;;;;;;8.80;5.65;;;;;;;6.52;59.13;100300.49;1772892;81;21001;-43
2022/04/29 01:57:35;;;;;;;10.20;5.75;;;;;;;6.51;59.18;100306.18;1772899;79;21489;-44
2022/04/29 02:00:08;;;;;;;9.83;4.58;;;;;;;6.51;58.98;100302.14;1772989;81;21835;-43
2022/04/29 02:02:46;;;;;;;8.75;5.30;;;;;;;6.51;58.81;100303.48;1772986;81;20990;-43
2022/04/29 02:05:17;;;;;;;9.48;5.00;;;;;;;6.47;58.69;100304.66;1772967;79;21005;-43
2022/04/29 02:07:45;;;;;;;8.45;4.50;;;;;;;6.46;58.65;100300.38;1773112;79;20969;-43
2022/04/29 02:10:14;;;;;;;7.72;4.35;;;;;;;6.45;58.55;100304.16;1773328;81;20962;-43
2022/04/29 02:12:43;;;;;;;7.83;4.83;;;;;;;6.43;58.52;100306.39;1773135;79;20882;-43
2022/04/29 02:15:29;;;;;;;9.95;5.15;;;;;;;6.43;58.49;100298.86;1773187;81;20930;-44
2022/04/29 02:17:57;;;;;;;7.87;4.50;;;;;;;6.35;58.55;100308.45;1773387;79;20991;-43
2022/04/29 02:20:27;;;;;;;9.38;4.65;;;;;;;6.31;58.69;100304.00;1773358;81;21045;-43
2022/04/29 02:22:57;;;;;;;7.33;4.17;;;;;;;6.27;58.62;100299.78;1773054;81;20958;-43
2022/04/29 02:25:24;;;;;;;6.87;4.00;;;;;;;6.21;58.64;100303.70;1773237;81;21222;-43
2022/04/29 02:27:52;;;;;;;7.12;4.65;;;;;;;6.16;58.83;100311.10;1772931;79;20914;-43
2022/04/29 02:30:20;;;;;;;9.00;4.80;;;;;;;6.09;58.92;100304.27;1773183;81;20983;-44
2022/04/29 02:32:47;;;;;;;8.18;4.80;;;;;;;6.01;58.85;100305.53;1772917;79;20998;-44
2022/04/29 02:35:14;;;;;;;10.53;5.17;;;;;;;5.99;59.03;100315.83;1772871;79;21076;-43
2022/04/29 02:37:42;;;;;;;9.55;5.42;;;;;;;5.97;59.12;100313.98;1772875;81;21182;-43
2022/04/29 02:40:12;;;;;;;11.63;5.22;;;;;;;5.97;58.99;100316.67;1758701;81;20953;-43
2022/04/29 02:42:40;;;;;;;9.40;5.25;;;;;;;5.97;59.01;100318.02;1773359;81;21502;-43
2022/04/29 02:45:10;;;;;;;9.80;5.65;;;;;;;5.97;58.97;100318.02;1774792;79;21002;-44
2022/04/29 02:47:42;;;;;;;13.68;6.03;;;;;;;5.95;58.96;100316.20;1789693;80;21076;-43
2022/04/29 02:50:10;;;;;;;11.25;5.37;;;;;;;5.91;59.18;100315.19;1789447;80;21127;-43
2022/04/29 02:52:39;;;;;;;9.48;4.17;;;;;;;5.90;59.26;100317.12;1789672;79;21468;-43
2022/04/29 02:55:08;;;;;;;9.18;5.65;;;;;;;5.91;59.12;100315.99;1789509;79;21534;-43
2022/04/29 03:00:34;;;;;;;9.93;5.70;;;;;;;5.99;59.10;100311.79;1829885;78;22550;-43
2022/04/29 03:03:01;;;;;;;9.25;5.40;;;;;;;5.93;59.20;100319.73;1803192;79;20978;-43
2022/04/29 03:05:28;;;;;;;12.70;6.30;;;;;;;6.00;59.07;100326.84;1803164;79;21241;-44
2022/04/29 03:07:55;;;;;;;12.33;6.08;;;;;;;6.04;58.98;100327.83;1803163;79;20926;-43
2022/04/29 03:10:22;;;;;;;11.43;5.92;;;;;;;6.08;59.06;100319.38;1803255;79;21008;-43
2022/04/29 03:12:51;;;;;;;10.35;5.70;;;;;;;6.11;59.02;100324.94;1803363;79;20931;-44
2022/04/29 03:15:37;;;;;;;9.63;5.37;;;;;;;6.16;59.07;100327.26;1803491;79;20932;-43
2022/04/29 03:18:23;;;;;;;10.60;5.70;;;;;;;6.19;59.26;100324.77;1803316;79;21490;-43
2022/04/29 03:20:56;;;;;;;9.98;4.87;;;;;;;6.22;59.37;100322.80;1803438;79;21013;-43
2022/04/29 03:23:25;;;;;;;10.18;4.83;;;;;;;6.25;59.36;100327.56;1803445;79;21027;-43
2022/04/29 03:25:54;;;;;;;8.38;4.78;;;;;;;6.29;59.55;100328.56;1803351;79;21246;-43
2022/04/29 03:28:22;;;;;;;8.08;4.15;;;;;;;6.32;59.63;100327.94;1803456;79;21035;-43
2022/04/29 03:30:50;;;;;;;6.28;4.03;;;;;;;6.35;59.66;100327.86;1803217;79;21272;-43
2022/04/29 03:33:19;;;;;;;8.75;4.60;;;;;;;6.39;59.83;100336.36;1803133;79;21458;-43
2022/04/29 03:35:49;;;;;;;8.13;4.28;;;;;;;6.45;59.96;100335.14;1802986;79;21022;-43
2022/04/29 03:38:18;;;;;;;8.63;4.10;;;;;;;6.49;59.95;100329.38;1801354;79;20974;-43
2022/04/29 03:40:45;;;;;;;8.20;4.00;;;;;;;6.59;60.04;100338.30;1803211;79;21046;-43
2022/04/29 03:43:12;;;;;;;7.97;4.90;;;;;;;6.67;60.27;100334.88;1803225;79;21815;-43
2022/04/29 03:45:41;;;;;;;7.58;4.15;;;;;;;6.75;60.29;100342.99;1803205;79;20994;-43
2022/04/29 03:48:11;;;;;;;;;;;;;;;6.81;60.05;100346.35;1805848;79;21529;-43
2022/04/29 03:50:49;;;;;;;7.85;4.03;;;;;;;6.86;59.93;100351.06;1762957;79;20174;-43
2022/04/29 03:53:16;;;;;;;8.45;4.47;;;;;;;6.79;60.41;100343.16;1803240;79;21078;-43
2022/04/29 03:55:45;;;;;;;7.80;4.25;;;;;;;6.86;60.50;100349.71;1801875;79;21287;-44
2022/04/29 03:58:11;;;;;;;6.35;4.10;;;;;;;6.95;60.56;100348.40;1803168;79;20983;-43
2022/04/29 04:00:48;;;;;;;8.08;3.90;;;;;;;7.02;60.48;100352.00;1792396;79;21022;-43
2022/04/29 04:03:16;;;;;;;7.50;3.50;;;;;;;7.08;60.46;100352.08;1791794;79;20955;-43
2022/04/29 04:06:49;;;;;;;5.78;3.60;;;;;;;7.15;60.53;100354.59;1792236;80;20991;-43
2022/04/29 04:08:13;;;;;;;5.83;3.47;;;;;;;7.22;60.31;100356.26;1789265;80;20936;-43
2022/04/29 04:10:43;;;;;;;4.25;3.33;;;;;;;7.29;60.35;100354.47;1792048;79;20951;-43
2022/04/29 04:13:13;;;;;;;6.58;3.52;;;;;;;7.37;60.36;100349.64;1791600;80;20924;-43
2022/04/29 04:15:51;;;;;;;6.20;3.58;;;;;;;7.47;60.22;100362.04;1790994;79;20986;-43
2022/04/29 04:18:18;;;;;;;5.28;3.35;;;;;;;7.55;60.13;100358.59;1791466;80;21083;-43
2022/04/29 04:20:48;;;;;;;4.78;3.40;;;;;;;7.65;60.14;100355.59;1791961;79;21885;-43
2022/04/29 04:23:17;;;;;;;4.85;3.02;;;;;;;7.75;59.85;100352.00;1791676;79;20928;-43
2022/04/29 04:25:46;;;;;;;6.30;3.30;;;;;;;7.94;59.63;100359.03;1791765;79;20956;-43
2022/04/29 04:28:16;;;;;;;;;;;;;;;8.08;59.61;100359.11;1794487;79;20995;-43
2022/04/29 04:30:44;;;;;;;5.25;3.42;;;;;;;8.23;59.56;100355.90;1785836;79;20170;-44
2022/04/29 04:33:12;;;;;;;5.90;3.50;;;;;;;8.29;59.58;100358.72;1791844;80;21192;-44
2022/04/29 04:35:39;;;;;;;7.30;3.67;;;;;;;8.48;59.08;100357.57;1786959;80;20920;-43
2022/04/29 04:38:08;;;;;;;5.42;3.40;;;;;;;8.64;58.60;100353.25;1791805;79;20960;-43
2022/04/29 04:40:36;;;;;;;8.53;3.15;;;;;;;8.80;58.01;100352.18;1789612;79;20959;-43
2022/04/29 04:43:04;;;;;;;6.35;3.25;;;;;;;8.94;57.82;100354.91;1791695;79;21067;-43
2022/04/29 04:45:32;;;;;;;7.78;3.25;;;;;;;9.11;57.76;100349.98;1791603;80;21159;-43
2022/04/29 04:48:01;;;;;;;5.67;3.20;;;;;;;9.31;57.35;100351.16;1788274;79;20963;-43
2022/04/29 04:50:46;;;;;;;5.20;3.20;;;;;;;9.48;56.56;100350.52;1689884;83;21044;-43
2022/04/29 04:53:13;;;;;;;4.67;2.92;;;;;;;9.64;55.51;100350.72;1746036;80;21039;-44
2022/04/29 04:55:41;;;;;;;6.75;3.40;;;;;;;9.76;54.75;100360.28;1791624;79;21027;-43
2022/04/29 04:58:09;;;;;;;5.70;2.80;;;;;;;9.84;54.16;100357.27;1791704;79;22042;-44
2022/04/29 05:00:37;;;;;;;6.12;2.95;;;;;;;9.87;53.74;100362.84;1795852;79;21015;-44
2022/04/29 05:03:06;;;;;;;5.10;3.40;;;;;;;9.89;54.04;100358.43;1792987;79;20963;-44
2022/04/29 05:05:52;;;;;;;5.53;3.22;;;;;;;9.88;53.83;100361.70;1797488;79;20951;-44
2022/04/29 05:08:18;;;;;;;5.87;3.65;;;;;;;9.89;54.21;100359.78;1797517;79;21063;-44
2022/04/29 05:10:48;;;;;;;4.30;3.20;;;;;;;9.91;53.89;100362.97;1797442;79;20971;-44
2022/04/29 05:13:16;;;;;;;5.25;3.40;;;;;;;9.92;54.14;100359.91;1797450;79;20970;-44
2022/04/29 05:15:46;;;;;;;;;;;;;;;9.97;54.52;100353.53;1799710;79;21014;-44
2022/04/29 05:18:16;;;;;;;5.42;3.65;;;;;;;10.02;54.10;100350.62;1795907;79;20147;-44
2022/04/29 05:20:55;;;;;;;7.30;4.22;;;;;;;9.98;54.05;100349.67;1796223;79;20983;-43
2022/04/29 05:23:23;;;;;;;8.20;4.08;;;;;;;10.08;54.15;100352.54;1797619;79;20959;-44
2022/04/29 05:26:07;;;;;;;7.35;4.03;;;;;;;10.18;54.14;100350.81;1685809;83;21041;-43
2022/04/29 05:28:39;;;;;;;7.35;4.22;;;;;;;10.29;53.47;100349.28;1738955;79;20936;-44
2022/04/29 05:31:21;;;;;;;6.05;4.20;;;;;;;10.43;53.53;100355.20;1723427;79;20967;-44
2022/04/29 05:33:53;;;;;;;6.37;3.75;;;;;;;10.54;53.05;100350.95;1792444;79;21047;-44
2022/04/29 05:36:38;;;;;;;9.53;4.70;;;;;;;10.65;52.10;100354.81;1797440;79;21118;-43
2022/04/29 05:42:18;;;;;;;7.72;4.40;;;;;;;10.89;51.52;100350.79;1797228;79;20987;-42
2022/04/29 05:44:46;;;;;;;7.72;3.80;;;;;;;11.04;49.81;100358.03;1797438;79;21006;-43
2022/04/29 05:47:14;;;;;;;5.85;3.60;;;;;;;11.19;49.89;100365.52;1797748;79;21078;-42
2022/04/29 05:49:41;;;;;;;5.67;3.10;;;;;;;11.33;49.76;100369.48;1797346;79;21064;-42
2022/04/29 05:52:09;;;;;;;5.83;3.30;;;;;;;11.48;48.78;100375.36;1797238;79;21011;-42
2022/04/29 05:54:39;;;;;;;5.85;3.87;;;;;;;11.63;48.84;100378.73;1780104;79;21014;-41
2022/04/29 05:57:07;;;;;;;7.15;3.75;;;;;;;11.77;48.90;100376.48;1766015;81;21055;-43
2022/04/29 05:59:34;;;;;;;8.73;4.03;;;;;;;11.92;49.02;100380.42;1764664;80;21103;-42
2022/04/29 06:02:06;;;;;;;11.28;3.85;;;;;;;12.08;48.42;100385.38;1759560;81;22419;-42
2022/04/29 06:04:35;;;;;;;9.78;3.77;;;;;;;12.20;48.08;100385.31;1764849;81;21002;-42
2022/04/29 06:07:05;;;;;;;13.83;4.65;;;;;;;12.31;47.37;100382.34;1768285;81;20912;-42
2022/04/29 06:09:33;;;;;;;18.12;6.83;;;;;;;12.43;47.49;100385.03;1768401;81;21000;-42
2022/04/29 06:12:02;;;;;;;12.65;5.85;;;;;;;12.55;45.94;100382.23;1768343;81;20896;-41
2022/04/29 06:14:31;;;;;;;7.75;4.45;;;;;;;12.66;46.51;100384.45;1768340;81;23128;-43
2022/04/29 06:17:18;;;;;;;8.73;4.20;;;;;;;12.79;47.14;100388.12;1768243;81;20967;-43
2022/04/29 06:20:07;;;;;;;9.25;4.25;;;;;;;12.89;46.95;100383.52;1768490;81;20966;-44
2022/04/29 06:22:51;;;;;;;10.05;4.40;;;;;;;13.05;46.53;100390.35;1764596;81;20948;-44
2022/04/29 06:25:25;;;;;;;11.22;3.92;;;;;;;13.20;45.96;100384.72;1757318;81;21564;-44
2022/04/29 06:27:54;;;;;;;11.03;4.40;;;;;;;13.35;45.05;100377.91;1768411;81;21007;-43
2022/04/29 06:30:21;;;;;;;7.08;3.45;;;;;;;13.50;44.91;100383.13;1768300;81;21497;-43
2022/04/29 06:32:56;;;;;;;;;;;;;;;13.65;43.96;100386.97;1769762;81;21488;-44
2022/04/29 06:35:25;;;;;;;5.33;2.92;;;;;;;13.76;42.55;100384.68;1768046;81;20193;-44
2022/04/29 06:37:52;;;;;;;9.00;4.28;;;;;;;13.73;42.27;100387.34;1768465;81;21074;-44
2022/04/29 06:40:38;;;;;;;8.38;3.70;;;;;;;13.83;42.43;100385.42;1768504;81;21224;-43
2022/04/29 06:43:08;;;;;;;13.72;3.90;;;;;;;13.85;41.99;100389.36;1768447;81;21506;-44
2022/04/29 06:45:43;;;;;;;6.95;3.27;;;;;;;13.89;41.10;100390.81;1763168;81;21405;-44
2022/04/29 06:48:19;;;;;;;4.37;2.90;;;;;;;13.67;41.34;100356.05;1764240;81;20920;-43
2022/04/29 06:51:06;;;;;;;8.85;3.87;;;;;;;13.96;41.15;100396.98;1768560;81;21030;-43
2022/04/29 06:53:40;;;;;;;9.23;4.25;;;;;;;14.01;41.60;100398.86;1766908;81;21125;-43
2022/04/29 06:56:08;;;;;;;5.62;3.12;;;;;;;14.07;41.19;100397.44;1768447;81;20962;-43
2022/04/29 06:58:36;;;;;;;8.53;3.62;;;;;;;14.19;41.14;100394.56;1768726;81;21043;-43
2022/04/29 07:01:02;;;;;;;7.65;4.00;;;;;;;14.37;40.18;100401.00;1768505;81;21576;-43
2022/04/29 07:03:30;;;;;;;8.95;5.08;;;;;;;14.49;40.39;100398.91;1768427;81;21019;-42
2022/04/29 07:05:59;;;;;;;12.85;5.20;;;;;;;14.56;40.62;100405.09;1768522;81;21256;-43
2022/04/29 07:08:31;;;;;;;8.93;4.08;;;;;;;14.58;40.33;100405.50;1768567;81;20900;-43
2022/04/29 07:11:05;;;;;;;10.28;4.28;;;;;;;14.60;39.70;100406.73;1768520;81;20947;-43
2022/04/29 07:13:46;;;;;;;9.53;3.72;;;;;;;14.67;39.21;100399.23;1767704;81;21078;-42
2022/04/29 07:16:14;;;;;;;8.10;3.72;;;;;;;14.70;38.40;100397.95;1768360;81;21039;-43
2022/04/29 07:19:01;;;;;;;9.58;3.40;;;;;;;14.75;38.43;100399.60;1768309;81;20931;-43
2022/04/29 07:21:31;;;;;;;8.70;3.65;;;;;;;14.84;38.63;100398.79;1768315;81;21513;-44
2022/04/29 07:23:59;;;;;;;7.20;3.62;;;;;;;15.04;38.50;100403.06;1768421;81;20931;-43
2022/04/29 07:26:28;;;;;;;7.42;3.33;;;;;;;15.23;38.04;100396.73;1768438;81;21010;-42
2022/04/29 07:28:56;;;;;;;6.00;2.92;;;;;;;15.39;37.58;100401.50;1768342;81;21521;-43
2022/04/29 07:31:24;;;;;;;8.85;2.83;;;;;;;15.52;36.59;100398.80;1768217;81;21224;-43
2022/04/29 07:34:10;;;;;;;6.30;2.95;;;;;;;15.61;35.69;100397.17;1765615;81;21478;-43
2022/04/29 07:42:30;;;;;;;5.15;2.35;;;;;;;15.88;35.17;100401.46;1768174;81;21030;-43
2022/04/29 07:44:59;;;;;;;4.58;2.00;;;;;;;15.97;35.87;100396.53;1768383;81;20932;-43
2022/04/29 07:47:27;;;;;;;5.40;2.52;;;;;;;16.15;35.43;100398.70;1765201;81;21000;-43
2022/04/29 07:49:58;;;;;;;4.00;2.02;;;;;;;16.35;36.28;100385.08;1767096;81;21006;-43
2022/04/29 07:52:27;;;;;;;1.82;1.50;;;;;;;16.57;35.44;100390.20;1738908;81;20943;-44
2022/04/29 07:54:54;;;;;;;3.92;1.70;;;;;;;16.76;35.45;100391.42;1768530;81;21528;-44
2022/04/29 07:57:21;;;;;;;2.10;1.62;;;;;;;16.91;33.51;100392.56;1768374;81;23157;-44
2022/04/29 07:59:52;;;;;;;3.90;1.52;;;;;;;16.97;34.01;100386.73;1768386;81;20963;-44
2022/04/29 08:02:29;;;;;;;3.33;1.87;;;;;;;17.08;34.67;100390.38;1733341;82;21342;-44
2022/04/29 08:04:57;;;;;;;3.47;2.05;;;;;;;17.26;34.38;100391.30;1730049;83;21044;-44
2022/04/29 08:07:23;;;;;;;2.55;1.90;;;;;;;17.47;34.76;100382.47;1730226;83;21018;-44
2022/04/29 08:09:52;;;;;;;5.00;2.00;;;;;;;17.62;34.09;100377.32;1730135;82;20970;-44
2022/04/29 08:12:21;;;;;;;4.33;2.30;;;;;;;17.71;34.13;100381.30;1730050;83;21037;-44
2022/04/29 08:15:09;;;;;;;3.42;2.25;;;;;;;17.69;33.93;100389.11;1730056;83;21021;-44
2022/04/29 08:17:40;;;;;;;3.75;1.90;;;;;;;17.78;34.25;100380.53;1728808;82;20930;-44
2022/04/29 08:20:10;;;;;;;2.80;1.82;;;;;;;17.88;34.13;100374.91;1730072;83;21049;-44
2022/04/29 08:22:42;;;;;;;3.58;1.92;;;;;;;17.88;33.54;100374.33;1735482;82;21069;-44
2022/04/29 08:25:10;;;;;;;3.05;1.95;;;;;;;17.75;33.55;100377.98;1747920;81;21489;-44
2022/04/29 08:27:38;;;;;;;3.58;1.92;;;;;;;17.68;33.42;100369.70;1748460;81;20963;-44
2022/04/29 08:30:09;;;;;;;4.08;1.72;;;;;;;17.77;33.79;100369.36;1748079;81;21021;-44
2022/04/29 08:32:41;;;;;;;4.90;2.00;;;;;;;17.93;32.38;100369.84;1748525;82;21019;-44
2022/04/29 08:35:10;;;;;;;2.25;1.60;;;;;;;18.13;32.98;100359.36;1747962;81;21244;-44
2022/04/29 08:37:42;;;;;;;2.15;1.65;;;;;;;18.28;32.48;100365.69;1748208;81;20948;-44
2022/04/29 08:40:14;;;;;;;3.33;1.82;;;;;;;18.46;32.67;100359.08;1748113;82;21031;-44
2022/04/29 08:42:43;;;;;;;2.50;1.70;;;;;;;18.63;31.31;100354.84;1737773;82;20947;-44
2022/04/29 08:45:16;;;;;;;2.90;1.70;;;;;;;18.68;30.94;100350.94;1743319;82;20997;-44
2022/04/29 08:48:01;;;;;;;3.83;2.25;;;;;;;18.58;31.31;100351.90;1748305;82;21702;-44
2022/04/29 08:50:31;;;;;;;3.42;2.00;;;;;;;18.51;32.21;100353.21;1747990;81;20880;-44
2022/04/29 08:52:59;;;;;;;4.87;2.27;;;;;;;18.42;31.96;100354.17;1737637;82;21477;-44
2022/04/29 09:01:03;;;;;;;4.92;2.17;;;;;;;17.71;31.49;100357.98;1747934;82;21123;-44
2022/04/29 09:03:30;;;;;;;2.90;2.00;;;;;;;17.43;32.30;100354.25;1748028;81;20955;-44
2022/04/29 09:05:57;;;;;;;3.35;2.25;;;;;;;17.22;32.59;100358.98;1751826;81;21509;-44
2022/04/29 09:08:24;;;;;;;3.72;2.30;;;;;;;17.18;33.14;100369.13;1753364;81;21724;-44
2022/04/29 09:10:58;;;;;;;5.05;2.45;;;;;;;17.21;33.76;100360.14;1753352;81;21011;-44
2022/04/29 09:13:28;;;;;;;3.35;2.02;;;;;;;17.22;32.87;100354.87;1753340;81;21870;-44
2022/04/29 09:16:07;;;;;;;3.40;2.05;;;;;;;17.20;33.28;100355.82;1752682;81;20994;-44
2022/04/29 09:18:47;;;;;;;4.50;2.70;;;;;;;17.20;33.71;100358.56;1753398;81;21494;-44
2022/04/29 09:21:24;;;;;;;4.62;2.58;;;;;;;17.19;34.03;100354.23;1753087;81;21035;-44
2022/04/29 09:23:56;;;;;;;5.00;2.52;;;;;;;17.07;33.73;100359.45;1753385;81;20982;-44
2022/04/29 09:26:42;;;;;;;5.33;2.40;;;;;;;16.92;33.74;100361.27;1753412;81;22124;-44
2022/04/29 09:29:31;;;;;;;6.00;2.00;;;;;;;16.86;34.13;100353.77;1753382;81;20926;-44
2022/04/29 09:32:11;;;;;;;4.60;2.22;;;;;;;16.78;34.76;100354.88;1750032;81;21381;-44
2022/04/29 09:35:01;;;;;;;3.75;1.95;;;;;;;16.75;34.96;100350.16;1753310;81;21763;-44
2022/04/29 09:37:30;;;;;;;3.75;2.30;;;;;;;16.74;35.15;100346.63;1753246;81;21050;-44
2022/04/29 09:40:05;;;;;;;4.45;2.30;;;;;;;16.73;35.23;100342.31;1753356;81;21307;-44
2022/04/29 09:42:42;;;;;;;3.67;2.30;;;;;;;16.73;35.33;100340.94;1753755;81;20989;-44
2022/04/29 09:45:17;;;;;;;3.40;1.93;;;;;;;16.75;34.92;100342.70;1753652;81;20966;-44
2022/04/29 09:47:44;;;;;;;2.62;2.00;;;;;;;16.86;35.42;100334.59;1752882;81;21583;-44
2022/04/29 09:50:11;;;;;;;3.17;2.10;;;;;;;17.10;35.28;100335.97;1753445;81;21010;-44
2022/04/29 09:52:39;;;;;;;4.30;2.02;;;;;;;17.38;34.68;100327.95;1753261;81;21275;-44
2022/04/29 09:55:14;;;;;;;2.70;1.75;;;;;;;17.61;33.66;100323.64;1753134;81;20935;-44
2022/04/29 09:57:56;;;;;;;3.22;1.85;;;;;;;17.88;33.25;100322.78;1753410;81;22038;-44
2022/04/29 10:00:21;;;;;;;7.60;2.00;;;;;;;18.21;33.25;100326.64;1753328;81;20891;-44
2022/04/29 10:02:49;;;;;;;4.53;1.67;;;;;;;18.60;32.26;100326.77;1753258;81;21077;-44
2022/04/29 10:05:16;;;;;;;1.92;1.50;;;;;;;18.80;30.89;100317.58;1753058;81;21115;-45
2022/04/29 10:07:46;;;;;;;4.65;1.90;;;;;;;19.03;30.99;100323.47;1753109;81;21014;-44
2022/04/29 10:10:20;;;;;;;3.40;2.42;;;;;;;19.30;31.29;100324.65;1751764;81;21085;-44
2022/04/29 10:12:49;;;;;;;2.98;1.70;;;;;;;19.60;29.26;100319.32;1753409;81;20999;-44
2022/04/29 10:15:18;;;;;;;4.33;1.40;;;;;;;19.91;29.37;100309.58;1753458;81;21030;-44
2022/04/29 10:23:38;;;;;;;2.55;1.57;;;;;;;20.49;27.35;100304.59;1753404;81;21090;-44
2022/04/29 10:26:05;;;;;;;2.50;1.60;;;;;;;20.62;27.62;100302.95;1753321;81;20974;-44
2022/04/29 10:28:33;;;;;;;2.90;1.60;;;;;;;20.79;27.93;100297.89;1753531;81;21509;-44
2022/04/29 10:31:05;;;;;;;3.12;1.40;;;;;;;20.93;27.40;100298.36;1734469;81;21823;-44
2022/04/29 10:33:32;;;;;;;2.70;1.50;;;;;;;20.99;26.91;100300.29;1753168;81;20939;-44
2022/04/29 10:36:08;;;;;;;2.67;1.55;;;;;;;21.23;27.42;100302.07;1753110;81;21035;-44
2022/04/29 10:38:39;;;;;;;2.55;1.80;;;;;;;21.51;24.36;100293.31;1753211;81;21034;-44
2022/04/29 10:41:13;;;;;;;4.30;1.50;;;;;;;21.35;24.86;100295.86;1753134;81;21634;-44
2022/04/29 10:43:56;;;;;;;1.60;1.22;;;;;;;21.01;25.77;100294.37;1753400;81;21101;-44
2022/04/29 10:46:40;;;;;;;2.72;1.70;;;;;;;20.77;25.00;100294.74;1745957;81;21536;-44
2022/04/29 10:49:26;;;;;;;2.83;1.55;;;;;;;20.71;25.26;100288.12;1751810;81;20931;-44
2022/04/29 10:52:28;;;;;;;1.87;1.40;;;;;;;20.64;24.88;100285.41;1752982;81;21009;-44
2022/04/29 10:55:24;;;;;;;1.62;1.22;;;;;;;20.38;25.22;100286.16;1747906;81;21007;-43
2022/04/29 10:57:59;;;;;;;4.05;1.57;;;;;;;20.16;25.96;100292.16;1753268;81;21090;-43
2022/04/29 11:00:28;;;;;;;2.70;1.72;;;;;;;20.08;26.49;100288.68;1735564;81;20976;-43
2022/04/29 11:03:25;;;;;;;2.33;1.50;;;;;;;20.10;25.93;100285.50;1753272;81;21085;-41
2022/04/29 11:05:54;;;;;;;2.50;1.45;;;;;;;19.93;25.77;100235.67;1753036;81;21022;-43
2022/04/29 11:08:20;;;;;;;1.45;1.35;;;;;;;20.58;26.68;100277.37;1734319;81;21081;-43
2022/04/29 11:10:59;;;;;;;2.27;1.35;;;;;;;21.12;26.51;100284.80;1734038;81;23392;-43
2022/04/29 11:13:27;;;;;;;1.75;1.30;;;;;;;21.62;25.42;100274.07;1753336;81;21001;-43
2022/04/29 11:16:16;;;;;;;1.40;1.30;;;;;;;22.17;24.07;100275.78;1753196;81;21024;-44
2022/04/29 11:19:14;;;;;;;2.15;1.40;;;;;;;22.54;24.43;100267.94;1734924;81;21059;-43
2022/04/29 11:24:42;;;;;;;1.52;1.35;;;;;;;22.74;23.47;100274.36;1677433;85;21139;-43
2022/04/29 11:27:10;;;;;;;2.20;1.52;;;;;;;22.88;24.28;100265.83;1722099;81;20986;-44
2022/04/29 11:29:44;;;;;;;1.32;1.15;;;;;;;23.19;23.92;100260.17;1753636;81;20983;-44
2022/04/29 11:32:24;;;;;;;2.75;1.25;;;;;;;23.34;24.01;100260.84;1749576;81;21112;-44
2022/04/29 11:35:04;;;;;;;1.80;1.37;;;;;;;23.51;23.42;100252.06;1753765;81;21026;-44
2022/04/29 11:37:31;;;;;;;3.58;1.60;;;;;;;23.50;22.30;100249.71;1752062;81;22098;-44
2022/04/29 11:40:04;;;;;;;2.20;1.55;;;;;;;23.21;22.58;100250.23;1753380;81;20967;-45
2022/04/29 11:42:31;;;;;;;3.95;1.77;;;;;;;22.89;23.30;100236.98;1753615;81;20995;-44
2022/04/29 11:45:07;;;;;;;4.75;1.62;;;;;;;22.71;23.10;100250.30;1753681;81;21828;-45
2022/04/29 11:47:36;;;;;;;2.77;1.80;;;;;;;22.68;24.05;100248.36;1753155;81;21022;-45
2022/04/29 11:50:05;;;;;;;2.25;1.52;;;;;;;22.69;23.99;100247.77;1753480;81;21236;-45
2022/04/29 11:52:33;;;;;;;4.55;1.60;;;;;;;22.48;23.74;100242.75;1753423;81;21528;-45
2022/04/29 11:55:13;;;;;;;2.80;1.40;;;;;;;22.16;23.17;100237.53;1753657;81;21002;-45
2022/04/29 11:57:49;;;;;;;2.08;1.40;;;;;;;21.68;24.10;100236.55;1753293;81;20959;-45
2022/04/29 12:00:24;;;;;;;2.10;1.40;;;;;;;21.20;24.91;100242.20;1753507;81;21065;-45
2022/04/29 12:02:52;;;;;;;2.15;1.45;;;;;;;20.78;26.24;100246.12;1753366;81;21200;-45
2022/04/29 12:05:25;;;;;;;4.20;1.70;;;;;;;20.42;27.03;100238.55;1753120;81;20971;-44
2022/04/29 12:07:53;;;;;;;3.15;1.67;;;;;;;20.00;27.88;100241.70;1748045;82;21424;-45
2022/04/29 12:10:27;;;;;;;2.67;1.40;;;;;;;19.66;28.18;100242.06;1747783;81;21513;-43
2022/04/29 12:12:58;;;;;;;3.42;1.82;;;;;;;19.45;28.35;100236.85;1748355;82;21011;-43
2022/04/29 12:15:32;;;;;;;3.00;1.47;;;;;;;19.31;27.58;100234.11;1748227;81;21156;-43